Time;durP1;ratioP1;P1;durP2;ratioP2;P2;SDS_P1;SDS_P2;PMS_P1;PMS_P2;Temp;Humidity;BMP_temperature;BMP_pressure;BME280_temperature;BME280_humidity;BME280_pressure;Samples;Min_cycle;Max_cycle;Signal;HPM_P1;HPM_P2
2021/05/28 00:00:20;;;;;;;6.23;5.73;;;14.00;99.90;;;;;;5023948;28;20216;-69
2021/05/28 00:02:45;;;;;;;7.30;5.90;;;14.00;99.90;;;;;;5023969;28;20189;-69
2021/05/28 00:05:15;;;;;;;12.00;6.50;;;13.90;99.90;;;;;;5019741;28;20444;-69
2021/05/28 00:07:40;;;;;;;8.07;5.90;;;13.90;99.90;;;;;;4987658;28;20286;-69
2021/05/28 00:10:07;;;;;;;6.73;6.10;;;13.90;99.90;;;;;;5024105;28;20775;-68
2021/05/28 00:12:32;;;;;;;5.90;5.03;;;14.00;99.90;;;;;;5023651;28;20192;-68
2021/05/28 00:14:58;;;;;;;9.70;5.80;;;13.90;99.90;;;;;;5022464;28;20478;-68
2021/05/28 00:17:23;;;;;;;6.40;5.80;;;14.10;99.90;;;;;;5025212;28;20223;-71
2021/05/28 00:19:49;;;;;;;6.63;5.17;;;14.20;99.90;;;;;;5021274;28;20196;-69
2021/05/28 00:22:15;;;;;;;8.70;5.90;;;14.00;99.90;;;;;;5022544;28;20225;-68
2021/05/28 00:24:40;;;;;;;13.83;6.10;;;14.00;99.90;;;;;;5019485;28;20287;-68
2021/05/28 00:27:06;;;;;;;6.80;5.90;;;14.10;99.90;;;;;;5018597;28;21491;-69
2021/05/28 00:29:32;;;;;;;7.37;6.10;;;14.00;99.90;;;;;;5023995;28;20212;-68
2021/05/28 00:31:58;;;;;;;7.63;5.57;;;13.90;99.90;;;;;;5022547;28;20276;-70
2021/05/28 00:34:23;;;;;;;7.80;5.87;;;13.80;99.90;;;;;;5023360;28;20521;-69
2021/05/28 00:36:49;;;;;;;9.13;6.00;;;13.90;99.90;;;;;;5025376;28;20256;-70
2021/05/28 00:39:15;;;;;;;7.27;5.80;;;13.90;99.90;;;;;;5026527;28;20213;-69
2021/05/28 00:41:40;;;;;;;5.50;5.00;;;13.90;99.90;;;;;;5020489;28;20652;-67
2021/05/28 00:44:06;;;;;;;9.33;6.30;;;14.00;99.90;;;;;;5023359;28;20679;-69
2021/05/28 00:46:32;;;;;;;6.90;5.20;;;13.90;99.90;;;;;;5024915;28;20216;-68
2021/05/28 00:48:57;;;;;;;7.83;5.40;;;13.90;99.90;;;;;;5022845;28;20476;-70
2021/05/28 00:51:24;;;;;;;6.77;6.10;;;13.90;99.90;;;;;;5024123;28;20184;-70
2021/05/28 00:53:50;;;;;;;6.90;5.73;;;13.90;99.90;;;;;;5022829;28;20188;-69
2021/05/28 00:56:16;;;;;;;6.00;5.40;;;13.90;99.90;;;;;;5023017;28;20467;-68
2021/05/28 00:58:42;;;;;;;6.67;5.73;;;14.10;99.90;;;;;;5022551;28;21365;-68
2021/05/28 01:01:08;;;;;;;6.20;5.70;;;14.20;99.90;;;;;;5026262;28;20937;-67
2021/05/28 01:03:35;;;;;;;6.47;5.10;;;14.00;99.90;;;;;;5023425;28;20431;-69
2021/05/28 01:06:00;;;;;;;6.60;5.90;;;14.00;99.90;;;;;;5024193;28;20448;-69
2021/05/28 01:08:26;;;;;;;7.77;5.50;;;13.90;99.90;;;;;;5024227;28;20439;-68
2021/05/28 01:10:52;;;;;;;12.77;5.30;;;13.90;99.90;;;;;;5026338;28;20250;-69
2021/05/28 01:13:17;;;;;;;12.80;6.17;;;13.90;99.90;;;;;;5023265;28;20696;-69
2021/05/28 01:15:43;;;;;;;8.10;5.80;;;13.90;99.90;;;;;;5022493;28;20192;-69
2021/05/28 01:18:09;;;;;;;5.57;5.07;;;13.90;99.90;;;;;;5023802;28;20297;-69
2021/05/28 01:20:36;;;;;;;5.77;4.97;;;13.90;99.90;;;;;;5020593;28;20638;-68
2021/05/28 01:23:03;;;;;;;6.87;5.10;;;13.90;99.90;;;;;;5020119;28;20427;-68
2021/05/28 01:25:30;;;;;;;9.97;6.17;;;13.90;99.90;;;;;;5022939;28;20466;-69
2021/05/28 01:27:56;;;;;;;6.30;5.70;;;13.90;99.90;;;;;;5022057;28;20465;-68
2021/05/28 01:30:24;;;;;;;6.73;5.00;;;13.90;99.90;;;;;;5022885;28;20431;-68
2021/05/28 01:32:50;;;;;;;5.20;4.70;;;13.90;99.90;;;;;;5024678;28;20184;-70
2021/05/28 01:35:16;;;;;;;6.50;4.60;;;14.00;99.90;;;;;;5021426;28;20454;-70
2021/05/28 01:37:43;;;;;;;12.73;5.60;;;14.00;99.90;;;;;;5020523;28;20970;-70
2021/05/28 01:40:09;;;;;;;9.57;6.67;;;13.90;99.90;;;;;;5025163;28;20435;-69
2021/05/28 01:42:35;;;;;;;6.93;5.23;;;14.00;99.90;;;;;;5024870;28;20454;-70
2021/05/28 01:45:03;;;;;;;6.47;5.10;;;14.00;99.90;;;;;;5025036;28;20930;-68
2021/05/28 01:47:30;;;;;;;5.80;5.10;;;13.90;99.90;;;;;;5023510;28;21667;-69
2021/05/28 01:49:56;;;;;;;6.47;5.70;;;14.00;99.90;;;;;;5023302;28;20439;-69
2021/05/28 01:52:23;;;;;;;7.50;5.70;;;14.00;99.90;;;;;;5024956;28;20453;-69
2021/05/28 01:54:49;;;;;;;6.67;4.77;;;14.00;99.90;;;;;;5021257;28;20493;-69
2021/05/28 01:57:14;;;;;;;8.27;5.63;;;14.00;99.90;;;;;;5021717;28;20475;-68
2021/05/28 01:59:42;;;;;;;5.90;5.20;;;13.90;99.90;;;;;;5024814;28;20749;-69
2021/05/28 02:02:08;;;;;;;6.73;5.00;;;13.90;99.90;;;;;;5022618;28;20192;-70
2021/05/28 02:04:34;;;;;;;5.87;5.27;;;13.90;99.90;;;;;;5023256;28;20439;-70
2021/05/28 02:06:59;;;;;;;5.63;5.13;;;13.90;99.90;;;;;;5027317;28;20215;-69
2021/05/28 02:09:25;;;;;;;8.20;5.97;;;13.90;99.90;;;;;;5028179;28;20972;-67
2021/05/28 02:11:51;;;;;;;6.60;5.17;;;13.90;99.90;;;;;;5025369;28;20208;-68
2021/05/28 02:14:16;;;;;;;7.00;5.10;;;13.90;99.90;;;;;;5027256;28;20207;-68
2021/05/28 02:16:42;;;;;;;6.07;5.47;;;13.80;99.90;;;;;;5025772;28;20216;-68
2021/05/28 02:19:09;;;;;;;8.60;6.70;;;13.80;99.90;;;;;;5029651;28;20692;-69
2021/05/28 02:21:35;;;;;;;6.27;5.60;;;13.80;99.90;;;;;;5024394;28;20181;-69
2021/05/28 02:24:02;;;;;;;8.80;4.90;;;13.80;99.90;;;;;;5025908;28;20486;-69
2021/05/28 02:26:27;;;;;;;8.23;5.67;;;13.80;99.90;;;;;;5027602;28;20490;-68
2021/05/28 02:28:53;;;;;;;6.67;6.07;;;13.80;99.90;;;;;;5026324;28;21168;-69
2021/05/28 02:31:19;;;;;;;9.23;5.97;;;13.80;99.90;;;;;;5023589;28;20192;-70
2021/05/28 02:33:44;;;;;;;6.77;5.23;;;13.80;99.90;;;;;;5026736;28;20524;-69
2021/05/28 02:36:10;;;;;;;6.27;5.67;;;13.80;99.90;;;;;;5026427;28;20877;-68
2021/05/28 02:38:36;;;;;;;6.53;5.10;;;13.80;99.90;;;;;;5025822;28;20217;-69
2021/05/28 02:41:02;;;;;;;10.33;5.33;;;13.80;99.90;;;;;;5026596;28;20488;-70
2021/05/28 02:43:28;;;;;;;6.10;5.50;;;13.80;99.90;;;;;;5024604;28;20219;-69
2021/05/28 02:45:54;;;;;;;6.10;5.50;;;13.80;99.90;;;;;;5026784;28;20463;-69
2021/05/28 02:48:20;;;;;;;6.43;5.87;;;13.80;99.90;;;;;;5026781;28;20246;-69
2021/05/28 02:50:49;;;;;;;6.20;5.60;;;13.80;99.90;;;;;;5022095;28;20197;-69
2021/05/28 02:53:16;;;;;;;9.00;6.60;;;13.70;99.90;;;;;;5024909;28;20505;-69
2021/05/28 02:55:42;;;;;;;8.30;6.30;;;13.70;99.90;;;;;;5024656;28;20488;-69
2021/05/28 02:58:08;;;;;;;7.37;6.17;;;13.70;99.90;;;;;;5023416;28;20491;-68
2021/05/28 03:00:34;;;;;;;8.77;6.97;;;13.70;99.90;;;;;;5026523;28;20188;-69
2021/05/28 03:02:59;;;;;;;9.30;7.07;;;13.70;99.90;;;;;;5027251;28;20644;-69
2021/05/28 03:05:25;;;;;;;13.40;7.83;;;13.70;99.90;;;;;;5024077;28;20200;-68
2021/05/28 03:07:50;;;;;;;8.87;6.33;;;13.70;99.90;;;;;;5026201;28;20208;-68
2021/05/28 03:10:16;;;;;;;9.40;6.87;;;13.70;99.90;;;;;;5026387;28;20723;-68
2021/05/28 03:12:42;;;;;;;10.23;7.20;;;13.70;99.90;;;;;;5026299;28;20203;-70
2021/05/28 03:15:09;;;;;;;11.10;7.23;;;13.70;99.90;;;;;;5026713;28;20199;-70
2021/05/28 03:17:35;;;;;;;8.07;7.20;;;13.60;99.90;;;;;;5022637;28;20212;-69
2021/05/28 03:20:04;;;;;;;9.50;6.90;;;13.60;99.90;;;;;;5023058;28;20439;-70
2021/05/28 03:22:31;;;;;;;9.20;7.73;;;13.60;99.90;;;;;;5026264;28;20435;-70
2021/05/28 03:24:58;;;;;;;13.63;7.40;;;13.60;99.90;;;;;;5025040;28;20442;-69
2021/05/28 03:27:24;;;;;;;7.30;6.30;;;13.60;99.90;;;;;;5024368;28;20590;-70
2021/05/28 03:29:49;;;;;;;7.70;6.50;;;13.50;99.90;;;;;;5024412;28;20449;-68
2021/05/28 03:32:15;;;;;;;8.57;6.50;;;13.50;99.90;;;;;;5021161;28;20451;-69
2021/05/28 03:34:40;;;;;;;9.40;7.13;;;13.50;99.90;;;;;;5024670;28;20666;-69
2021/05/28 03:37:06;;;;;;;10.10;7.43;;;13.50;99.90;;;;;;5025769;28;20216;-68
2021/05/28 03:39:32;;;;;;;7.60;6.80;;;13.50;99.90;;;;;;5026099;28;20796;-69
2021/05/28 03:41:59;;;;;;;11.60;7.17;;;13.50;99.90;;;;;;5030359;28;20299;-69
2021/05/28 03:44:24;;;;;;;9.30;6.80;;;13.50;99.90;;;;;;5026754;28;21260;-70
2021/05/28 03:46:50;;;;;;;8.20;6.97;;;13.40;99.90;;;;;;5023227;28;20223;-69
2021/05/28 03:49:15;;;;;;;12.60;7.67;;;13.40;99.90;;;;;;5028079;28;20243;-69
2021/05/28 03:51:41;;;;;;;9.40;6.10;;;13.40;99.90;;;;;;5025486;28;20224;-68
2021/05/28 03:54:06;;;;;;;8.80;7.10;;;13.40;99.90;;;;;;5025956;28;20201;-69
2021/05/28 03:56:32;;;;;;;9.70;7.47;;;13.40;99.90;;;;;;5026806;28;20499;-68
2021/05/28 03:58:58;;;;;;;12.30;6.90;;;13.40;99.90;;;;;;5026611;28;20745;-68
2021/05/28 04:01:23;;;;;;;10.23;7.40;;;13.40;99.90;;;;;;5026839;28;20266;-69
2021/05/28 04:03:49;;;;;;;9.60;7.57;;;13.40;99.90;;;;;;5025500;28;20718;-68
2021/05/28 04:06:15;;;;;;;9.13;6.90;;;13.40;99.90;;;;;;5023807;28;20220;-70
2021/05/28 04:08:40;;;;;;;11.97;7.63;;;13.40;99.90;;;;;;5024068;28;20220;-68
2021/05/28 04:11:06;;;;;;;9.57;7.07;;;13.40;99.90;;;;;;5024699;28;20207;-70
2021/05/28 04:13:32;;;;;;;8.73;7.13;;;13.40;99.90;;;;;;5023281;28;20304;-66
2021/05/28 04:16:01;;;;;;;8.30;7.10;;;13.40;99.90;;;;;;5025160;28;20231;-69
2021/05/28 04:18:27;;;;;;;10.17;7.13;;;13.40;99.90;;;;;;5024884;28;21308;-68
2021/05/28 04:20:53;;;;;;;14.10;8.03;;;13.40;99.90;;;;;;5024652;28;20443;-69
2021/05/28 04:23:19;;;;;;;9.10;7.70;;;13.40;99.90;;;;;;5024018;28;20451;-67
2021/05/28 04:25:46;;;;;;;11.77;7.77;;;13.40;99.90;;;;;;5022909;28;20922;-68
2021/05/28 04:28:12;;;;;;;8.87;7.90;;;13.40;99.90;;;;;;5024768;28;20454;-68
2021/05/28 04:30:38;;;;;;;8.47;6.87;;;13.40;99.90;;;;;;5028219;28;20447;-69
2021/05/28 04:33:04;;;;;;;12.03;7.30;;;13.40;99.90;;;;;;5025730;28;20451;-69
2021/05/28 04:35:29;;;;;;;14.33;8.20;;;13.50;99.90;;;;;;5026702;28;20200;-69
2021/05/28 04:37:55;;;;;;;14.40;7.80;;;13.40;99.90;;;;;;5028398;28;21086;-69
2021/05/28 04:40:21;;;;;;;11.53;7.83;;;13.40;99.90;;;;;;5024848;28;20196;-69
2021/05/28 04:42:46;;;;;;;11.80;7.10;;;13.40;99.90;;;;;;5023528;28;20977;-68
2021/05/28 04:45:13;;;;;;;10.00;8.20;;;13.40;99.90;;;;;;5024705;28;20722;-69
2021/05/28 04:47:38;;;;;;;11.83;8.30;;;13.40;99.90;;;;;;5023079;28;20216;-69
2021/05/28 04:50:05;;;;;;;10.27;8.47;;;13.40;99.90;;;;;;5025252;28;20453;-69
2021/05/28 04:52:31;;;;;;;14.03;9.03;;;13.40;99.90;;;;;;5024726;28;20278;-70
2021/05/28 04:54:56;;;;;;;11.63;8.90;;;13.40;99.90;;;;;;5022283;28;20483;-70
2021/05/28 04:57:22;;;;;;;10.30;8.63;;;13.40;99.90;;;;;;5021624;28;20397;-70
2021/05/28 04:59:47;;;;;;;11.33;7.70;;;13.50;99.90;;;;;;5026457;28;20193;-68
2021/05/28 05:02:13;;;;;;;15.70;9.23;;;13.50;99.90;;;;;;5022248;28;20664;-70
2021/05/28 05:04:38;;;;;;;12.33;9.60;;;13.50;99.90;;;;;;5028587;28;20270;-70
2021/05/28 05:07:04;;;;;;;12.23;8.97;;;13.50;99.90;;;;;;5022459;28;20301;-69
2021/05/28 05:09:30;;;;;;;15.73;9.80;;;13.50;99.90;;;;;;5025697;28;20192;-69
2021/05/28 05:11:55;;;;;;;9.63;8.63;;;13.50;99.90;;;;;;5026314;28;20577;-70
2021/05/28 05:14:21;;;;;;;14.20;10.10;;;13.50;99.90;;;;;;5022779;28;20729;-68
2021/05/28 05:16:46;;;;;;;14.73;9.23;;;13.50;99.90;;;;;;5021472;28;20760;-67
2021/05/28 05:19:12;;;;;;;14.67;11.07;;;13.50;99.90;;;;;;5021546;28;20250;-68
2021/05/28 05:21:39;;;;;;;14.73;9.23;;;13.60;99.90;;;;;;5022626;28;20212;-68
2021/05/28 05:24:05;;;;;;;14.00;9.23;;;13.60;99.90;;;;;;5021087;28;20474;-69
2021/05/28 05:26:31;;;;;;;13.80;10.57;;;13.70;99.90;;;;;;5022054;28;20800;-69
2021/05/28 05:28:56;;;;;;;11.07;9.13;;;13.70;99.90;;;;;;5020248;28;20453;-69
2021/05/28 05:31:22;;;;;;;16.53;9.50;;;13.70;99.90;;;;;;5017565;28;20598;-69
2021/05/28 05:33:48;;;;;;;12.40;10.40;;;13.70;99.90;;;;;;5022281;28;20234;-69
2021/05/28 05:36:13;;;;;;;11.27;9.27;;;13.70;99.90;;;;;;5021230;28;20605;-67
2021/05/28 05:38:39;;;;;;;11.43;9.00;;;13.70;99.90;;;;;;5022786;28;20334;-69
2021/05/28 05:41:04;;;;;;;10.40;9.30;;;13.70;99.90;;;;;;5026337;28;20189;-69
2021/05/28 05:43:30;;;;;;;14.33;10.40;;;13.80;99.90;;;;;;5025398;28;20196;-68
2021/05/28 05:45:55;;;;;;;11.47;8.70;;;13.90;99.90;;;;;;5026937;28;20207;-68
2021/05/28 05:48:21;;;;;;;15.60;9.93;;;13.90;99.90;;;;;;5025754;28;20243;-69
2021/05/28 05:50:47;;;;;;;15.23;9.70;;;13.80;99.90;;;;;;5025557;28;20588;-69
2021/05/28 05:53:13;;;;;;;14.33;9.00;;;13.90;99.90;;;;;;5026960;28;20185;-68
2021/05/28 05:55:38;;;;;;;16.20;10.70;;;13.90;99.90;;;;;;5026990;28;20832;-68
2021/05/28 05:58:04;;;;;;;14.53;9.73;;;13.90;99.90;;;;;;5025115;28;20208;-69
2021/05/28 06:00:29;;;;;;;11.60;8.67;;;14.00;99.90;;;;;;5017205;28;20193;-71
2021/05/28 06:02:55;;;;;;;13.50;9.30;;;14.10;99.90;;;;;;5013658;28;20299;-70
2021/05/28 06:05:20;;;;;;;12.33;9.87;;;14.10;99.90;;;;;;5020510;28;20235;-70
2021/05/28 06:07:46;;;;;;;15.13;9.70;;;14.20;99.90;;;;;;5025224;28;20540;-70
2021/05/28 06:10:13;;;;;;;10.63;9.10;;;14.10;99.90;;;;;;5023911;28;20193;-70
2021/05/28 06:12:38;;;;;;;15.53;9.10;;;14.20;99.90;;;;;;5023658;28;20191;-68
2021/05/28 06:15:05;;;;;;;12.97;9.57;;;14.10;99.90;;;;;;5023587;28;20443;-68
2021/05/28 06:17:31;;;;;;;10.60;9.33;;;14.20;99.90;;;;;;5025533;28;20694;-68
2021/05/28 06:19:57;;;;;;;11.03;9.50;;;14.20;99.90;;;;;;5026282;28;20427;-69
2021/05/28 06:22:22;;;;;;;17.30;9.80;;;14.20;99.90;;;;;;5026800;28;20184;-69
2021/05/28 06:24:51;;;;;;;16.03;9.57;;;14.20;99.90;;;;;;5022855;28;20203;-69
2021/05/28 06:27:17;;;;;;;15.43;9.20;;;14.20;99.90;;;;;;5026045;28;20197;-70
2021/05/28 06:29:43;;;;;;;11.50;9.20;;;14.30;99.90;;;;;;5024459;28;20512;-69
2021/05/28 06:32:08;;;;;;;14.40;9.80;;;14.30;99.90;;;;;;5026386;28;20584;-68
2021/05/28 06:34:34;;;;;;;13.13;9.13;;;14.20;99.90;;;;;;5024877;28;20184;-69
2021/05/28 06:37:00;;;;;;;13.60;9.73;;;14.30;99.90;;;;;;5021448;28;20205;-69
2021/05/28 06:39:26;;;;;;;16.03;9.57;;;14.30;99.90;;;;;;5023690;28;22342;-69
2021/05/28 06:41:52;;;;;;;12.13;9.57;;;14.30;99.90;;;;;;5026949;28;20531;-68
2021/05/28 06:44:23;;;;;;;11.93;9.20;;;14.30;99.90;;;;;;5024248;28;20489;-67
2021/05/28 06:46:53;;;;;;;11.40;8.23;;;14.40;99.90;;;;;;5029134;28;20451;-68
2021/05/28 06:49:19;;;;;;;13.77;8.40;;;14.40;99.90;;;;;;5025923;28;20442;-69
2021/05/28 06:51:46;;;;;;;17.93;9.40;;;14.50;99.90;;;;;;5022126;28;20493;-68
2021/05/28 06:54:12;;;;;;;10.70;8.93;;;14.60;99.90;;;;;;5022858;28;20479;-69
2021/05/28 06:56:38;;;;;;;17.40;10.00;;;14.60;99.90;;;;;;5023554;28;20447;-70
2021/05/28 06:59:06;;;;;;;10.80;8.90;;;14.60;99.90;;;;;;5026304;28;20463;-70
2021/05/28 07:01:32;;;;;;;14.17;9.20;;;14.60;99.90;;;;;;5025506;28;20440;-71
2021/05/28 07:04:01;;;;;;;15.37;9.50;;;14.70;99.90;;;;;;5027187;28;20443;-70
2021/05/28 07:06:27;;;;;;;12.27;9.30;;;14.80;99.90;;;;;;5024752;28;20216;-69
2021/05/28 07:08:53;;;;;;;14.50;9.00;;;14.90;99.90;;;;;;5020899;28;20924;-69
2021/05/28 07:11:18;;;;;;;12.20;9.50;;;15.00;99.90;;;;;;5024964;28;20447;-69
2021/05/28 07:13:44;;;;;;;9.53;8.50;;;15.20;99.90;;;;;;5024937;28;20647;-72
2021/05/28 07:16:10;;;;;;;10.80;8.40;;;15.20;99.90;;;;;;5026053;28;20200;-69
2021/05/28 07:18:35;;;;;;;14.90;9.60;;;15.30;99.90;;;;;;5028307;28;20213;-69
2021/05/28 07:21:01;;;;;;;14.13;10.33;;;15.40;99.90;;;;;;5025265;28;20189;-69
2021/05/28 07:23:29;;;;;;;11.77;9.40;;;15.40;99.90;;;;;;5028461;28;20191;-70
2021/05/28 07:25:55;;;;;;;13.40;9.63;;;15.50;99.90;;;;;;5023740;28;20450;-69
2021/05/28 07:28:20;;;;;;;10.73;9.63;;;15.70;99.90;;;;;;5023899;28;20443;-70
2021/05/28 07:30:47;;;;;;;10.33;7.90;;;15.70;99.90;;;;;;5026985;28;20504;-69
2021/05/28 07:33:13;;;;;;;14.93;8.67;;;15.80;99.90;;;;;;5023638;28;20280;-70
2021/05/28 07:35:39;;;;;;;10.07;7.80;;;15.90;99.90;;;;;;5025700;28;20439;-70
2021/05/28 07:38:04;;;;;;;15.40;8.10;;;16.00;99.90;;;;;;5026646;28;20463;-69
2021/05/28 07:40:30;;;;;;;10.67;8.00;;;16.00;99.90;;;;;;5025072;28;20245;-70
2021/05/28 07:42:56;;;;;;;11.77;7.50;;;16.00;99.90;;;;;;5022560;28;20193;-69
2021/05/28 07:45:22;;;;;;;10.60;7.57;;;16.20;99.90;;;;;;5022509;28;20234;-68
2021/05/28 07:47:47;;;;;;;9.20;7.30;;;16.20;99.90;;;;;;5024516;28;20299;-70
2021/05/28 07:50:13;;;;;;;7.43;6.73;;;16.20;99.90;;;;;;5028098;28;20172;-70
2021/05/28 07:52:39;;;;;;;8.13;6.40;;;16.30;99.90;;;;;;5023439;28;20674;-70
2021/05/28 07:55:05;;;;;;;6.30;5.80;;;16.30;99.90;;;;;;5020688;28;20427;-69
2021/05/28 07:57:31;;;;;;;6.80;6.10;;;16.60;99.90;;;;;;5015778;28;20220;-69
2021/05/28 07:59:57;;;;;;;9.63;6.73;;;16.70;99.90;;;;;;5018169;28;20450;-69
2021/05/28 08:02:22;;;;;;;13.73;8.37;;;16.80;99.90;;;;;;5024349;28;20201;-69
2021/05/28 08:04:48;;;;;;;7.27;6.27;;;16.90;99.90;;;;;;5024237;28;20193;-69
2021/05/28 08:07:13;;;;;;;7.57;6.80;;;16.80;99.90;;;;;;5025217;28;20213;-68
2021/05/28 08:09:39;;;;;;;9.20;6.77;;;16.70;99.90;;;;;;5023744;28;20886;-69
2021/05/28 08:12:05;;;;;;;7.40;6.63;;;16.70;99.90;;;;;;5024647;28;20279;-68
2021/05/28 08:14:31;;;;;;;7.37;6.73;;;16.60;99.90;;;;;;5024834;28;20311;-69
2021/05/28 08:16:57;;;;;;;8.53;6.60;;;16.60;99.90;;;;;;5021977;28;20569;-68
2021/05/28 08:19:22;;;;;;;12.57;7.20;;;16.60;99.90;;;;;;5024598;28;20712;-69
2021/05/28 08:21:49;;;;;;;7.97;7.10;;;16.60;99.90;;;;;;5023290;28;20254;-68
2021/05/28 08:24:15;;;;;;;6.73;6.13;;;16.60;99.90;;;;;;5005849;28;20227;-69
2021/05/28 08:26:41;;;;;;;8.77;6.87;;;16.70;99.90;;;;;;5023556;28;20495;-69
2021/05/28 08:29:08;;;;;;;7.27;6.10;;;16.80;99.90;;;;;;5023083;28;20273;-69
2021/05/28 08:31:34;;;;;;;7.67;6.33;;;16.80;99.90;;;;;;5026368;28;20450;-69
2021/05/28 08:34:00;;;;;;;6.30;5.80;;;16.70;99.90;;;;;;5022423;28;21030;-69
2021/05/28 08:36:25;;;;;;;7.00;6.03;;;16.70;99.90;;;;;;5025241;28;20462;-68
2021/05/28 08:38:51;;;;;;;8.23;6.97;;;16.70;99.90;;;;;;5021634;28;21075;-69
2021/05/28 08:41:18;;;;;;;7.60;6.80;;;16.70;99.90;;;;;;5021026;28;20201;-69
2021/05/28 08:43:44;;;;;;;8.67;6.90;;;16.70;99.90;;;;;;5020499;28;20231;-69
2021/05/28 08:46:13;;;;;;;8.80;6.23;;;16.80;99.90;;;;;;5021012;28;20646;-70
2021/05/28 08:48:39;;;;;;;8.00;6.83;;;16.80;99.90;;;;;;5020064;28;20446;-70
2021/05/28 08:51:05;;;;;;;9.03;6.40;;;16.80;99.90;;;;;;5036214;28;20815;-70
2021/05/28 08:53:30;;;;;;;7.23;6.50;;;16.70;99.90;;;;;;5022470;28;20192;-70
2021/05/28 08:55:56;;;;;;;8.70;6.63;;;16.70;99.90;;;;;;5017754;28;20874;-69
2021/05/28 08:58:22;;;;;;;8.13;6.47;;;16.70;99.90;;;;;;5023493;28;20216;-69
2021/05/28 09:00:49;;;;;;;8.20;7.27;;;16.80;99.90;;;;;;5022975;28;20242;-65
2021/05/28 09:03:34;;;;;;;7.37;6.40;;;16.80;99.90;;;;;;5019892;28;20446;-71
2021/05/28 09:06:20;;;;;;;8.97;6.17;;;16.80;99.90;;;;;;5021699;28;20486;-70
2021/05/28 09:08:46;;;;;;;9.13;7.47;;;16.90;99.90;;;;;;5025168;28;20442;-72
2021/05/28 09:11:19;;;;;;;8.07;7.27;;;17.00;99.90;;;;;;5022162;28;21061;-74
2021/05/28 09:13:57;;;;;;;7.20;5.80;;;17.20;99.90;;;;;;5022679;28;20451;-68
2021/05/28 09:16:27;;;;;;;8.43;5.80;;;17.40;99.90;;;;;;5021004;28;20549;-74
2021/05/28 09:19:00;;;;;;;5.70;5.20;;;17.50;99.90;;;;;;5023379;28;20466;-77
2021/05/28 09:21:32;;;;;;;5.83;5.33;;;17.90;99.90;;;;;;5021883;28;21010;-76
2021/05/28 09:24:06;;;;;;;5.30;4.83;;;18.20;99.90;;;;;;5020424;28;20435;-76
2021/05/28 09:26:33;;;;;;;8.40;6.00;;;18.50;99.90;;;;;;5019554;28;20456;-75
2021/05/28 09:29:01;;;;;;;6.00;4.90;;;18.60;99.90;;;;;;5022515;28;20459;-76
2021/05/28 09:31:28;;;;;;;6.10;5.57;;;18.70;99.90;;;;;;5024958;28;21402;-76
2021/05/28 09:33:55;;;;;;;5.77;5.27;;;18.90;99.90;;;;;;5021261;28;20459;-75
2021/05/28 09:36:23;;;;;;;7.27;5.33;;;19.00;99.90;;;;;;5023353;28;20910;-76
2021/05/28 09:39:03;;;;;;;8.13;6.00;;;19.20;99.90;;;;;;5021566;28;20493;-75
2021/05/28 09:41:49;;;;;;;6.50;5.60;;;19.20;99.90;;;;;;5021438;28;20518;-75
2021/05/28 09:44:25;;;;;;;6.97;5.90;;;19.50;99.90;;;;;;5022658;28;20446;-76
2021/05/28 09:46:56;;;;;;;6.83;6.13;;;19.60;99.90;;;;;;5028579;28;20568;-75
2021/05/28 09:49:25;;;;;;;6.03;5.43;;;19.50;99.90;;;;;;5022538;28;20450;-76
2021/05/28 09:52:04;;;;;;;6.50;5.53;;;19.50;99.90;;;;;;5021946;28;20473;-76
2021/05/28 09:54:29;;;;;;;5.17;4.67;;;19.20;99.90;;;;;;5022211;28;20438;-77
2021/05/28 09:56:55;;;;;;;10.00;4.80;;;19.10;99.90;;;;;;5024364;28;20451;-76
2021/05/28 09:59:20;;;;;;;6.53;5.93;;;19.20;99.90;;;;;;5022062;28;20224;-76
2021/05/28 10:02:01;;;;;;;6.97;6.27;;;19.40;99.90;;;;;;5023014;28;20189;-77
2021/05/28 10:04:29;;;;;;;6.90;5.50;;;19.40;99.90;;;;;;5023475;28;20235;-76
2021/05/28 10:06:55;;;;;;;7.57;6.00;;;19.40;99.90;;;;;;5024495;28;20451;-76
2021/05/28 10:09:21;;;;;;;7.20;5.77;;;19.50;99.90;;;;;;5020209;28;20445;-76
2021/05/28 10:11:46;;;;;;;4.83;4.33;;;19.40;99.90;;;;;;5022889;28;20196;-76
2021/05/28 10:14:12;;;;;;;6.43;4.80;;;19.30;99.90;;;;;;5022958;28;20454;-77
2021/05/28 10:16:38;;;;;;;6.20;4.83;;;19.40;99.90;;;;;;5028411;28;20208;-76
2021/05/28 10:19:05;;;;;;;5.60;4.60;;;19.40;99.90;;;;;;5024088;28;20216;-75
2021/05/28 10:21:32;;;;;;;5.40;5.00;;;19.30;99.90;;;;;;5025335;28;20482;-75
2021/05/28 10:23:59;;;;;;;5.37;4.80;;;19.50;99.90;;;;;;5019806;28;20439;-77
2021/05/28 10:26:28;;;;;;;5.50;5.00;;;19.80;99.90;;;;;;5020803;28;20463;-75
2021/05/28 10:28:54;;;;;;;5.17;4.67;;;19.70;99.90;;;;;;5024505;28;20450;-76
2021/05/28 10:31:40;;;;;;;7.97;5.20;;;19.70;99.90;;;;;;5023402;28;20446;-75
2021/05/28 10:34:06;;;;;;;6.20;5.20;;;19.80;99.90;;;;;;5029432;28;20540;-76
2021/05/28 10:36:42;;;;;;;5.13;4.63;;;19.80;99.90;;;;;;5027255;28;20471;-76
2021/05/28 10:39:10;;;;;;;5.20;4.80;;;20.00;99.90;;;;;;5027494;28;20196;-76
2021/05/28 10:41:47;;;;;;;5.00;4.60;;;20.10;99.90;;;;;;5024242;28;21129;-76
2021/05/28 10:44:19;;;;;;;4.73;4.33;;;20.10;99.90;;;;;;5025255;28;20525;-76
2021/05/28 10:47:14;;;;;;;5.50;4.50;;;20.10;99.90;;;;;;5025723;28;20454;-76
2021/05/28 10:49:43;;;;;;;6.67;4.23;;;20.10;99.90;;;;;;5020230;28;20523;-76
2021/05/28 10:52:12;;;;;;;7.43;4.40;;;20.20;99.90;;;;;;5025935;28;20436;-76
2021/05/28 10:54:42;;;;;;;6.50;4.30;;;20.40;99.90;;;;;;5027889;28;20451;-76
2021/05/28 10:57:26;;;;;;;4.47;4.17;;;20.70;99.90;;;;;;5029837;28;20461;-76
2021/05/28 10:59:54;;;;;;;4.83;4.27;;;20.80;99.90;;;;;;5028530;28;20427;-76
2021/05/28 11:02:49;;;;;;;4.83;4.43;;;20.90;99.90;;;;;;5026173;28;20965;-76
2021/05/28 11:05:17;;;;;;;4.50;4.00;;;21.10;99.90;;;;;;5028632;28;20431;-76
2021/05/28 11:07:45;;;;;;;6.43;4.43;;;21.20;99.90;;;;;;5012952;28;20471;-74
2021/05/28 11:10:22;;;;;;;4.93;4.47;;;21.30;99.90;;;;;;5026247;28;20530;-77
2021/05/28 11:12:48;;;;;;;5.63;4.90;;;21.20;99.90;;;;;;5026081;28;20445;-75
2021/05/28 11:15:23;;;;;;;4.47;4.17;;;21.10;99.90;;;;;;5025730;28;20441;-75
2021/05/28 11:18:03;;;;;;;9.70;4.40;;;21.10;99.90;;;;;;5024087;28;20471;-75
2021/05/28 11:20:37;;;;;;;6.50;3.93;;;21.00;99.90;;;;;;5026750;28;20434;-76
2021/05/28 11:23:14;;;;;;;4.20;3.90;;;21.00;99.90;;;;;;5022467;28;20443;-76
2021/05/28 11:25:47;;;;;;;4.67;4.13;;;20.90;99.90;;;;;;5026236;28;20435;-75
2021/05/28 11:28:14;;;;;;;4.03;3.50;;;20.90;99.90;;;;;;5027110;28;20439;-76
2021/05/28 11:30:47;;;;;;;3.67;3.33;;;20.70;99.90;;;;;;5023620;28;20453;-76
2021/05/28 11:33:35;;;;;;;4.93;3.30;;;20.70;99.90;;;;;;5022358;28;20450;-74
2021/05/28 11:36:01;;;;;;;4.10;3.67;;;20.80;99.90;;;;;;5024851;28;20460;-75
2021/05/28 11:38:38;;;;;;;4.50;4.10;;;21.00;99.90;;;;;;5023954;28;20513;-74
2021/05/28 11:41:04;;;;;;;4.30;4.00;;;21.10;99.90;;;;;;5025130;28;20461;-76
2021/05/28 11:43:36;;;;;;;4.13;3.70;;;21.30;99.90;;;;;;5021769;28;20561;-75
2021/05/28 11:46:03;;;;;;;4.10;3.80;;;21.30;99.90;;;;;;5020717;28;20451;-74
2021/05/28 11:48:29;;;;;;;3.90;3.60;;;21.50;99.90;;;;;;5023109;28;20575;-75
2021/05/28 11:50:59;;;;;;;3.87;3.47;;;21.50;99.90;;;;;;5025599;28;20442;-75
2021/05/28 11:53:38;;;;;;;8.03;3.73;;;21.40;99.90;;;;;;5020459;28;20427;-75
2021/05/28 11:56:05;;;;;;;3.70;3.40;;;21.40;99.20;;;;;;5023664;28;20482;-76
2021/05/28 11:58:33;;;;;;;4.77;4.03;;;21.40;99.60;;;;;;5026075;28;20478;-75
2021/05/28 12:01:04;;;;;;;3.83;3.53;;;21.50;98.90;;;;;;5021545;28;20451;-75
2021/05/28 12:03:30;;;;;;;3.80;3.50;;;21.40;97.70;;;;;;5024475;28;20443;-75
2021/05/28 12:05:56;;;;;;;4.10;3.80;;;21.70;98.20;;;;;;5024645;28;20437;-76
2021/05/28 12:08:29;;;;;;;4.83;4.30;;;21.80;97.30;;;;;;5019177;28;20942;-76
2021/05/28 12:10:57;;;;;;;3.77;3.47;;;21.80;98.20;;;;;;5022381;28;20180;-75
2021/05/28 12:13:25;;;;;;;4.10;3.80;;;21.90;97.70;;;;;;5026704;28;20534;-75
2021/05/28 12:15:52;;;;;;;4.47;3.70;;;21.60;97.50;;;;;;5021307;28;20443;-76
2021/05/28 12:18:30;;;;;;;4.10;3.80;;;21.40;98.30;;;;;;5017271;28;20459;-76
2021/05/28 12:20:57;;;;;;;6.90;3.43;;;21.50;98.20;;;;;;5024179;28;20423;-75
2021/05/28 12:23:31;;;;;;;4.10;3.70;;;21.30;97.20;;;;;;5023517;28;20407;-76
2021/05/28 12:26:00;;;;;;;4.83;3.60;;;21.30;97.30;;;;;;5022739;28;20443;-76
2021/05/28 12:28:41;;;;;;;3.20;3.00;;;21.30;97.80;;;;;;5027694;28;20478;-76
2021/05/28 12:31:12;;;;;;;4.23;3.87;;;21.30;97.60;;;;;;5025035;28;20423;-76
2021/05/28 12:33:43;;;;;;;3.30;3.10;;;21.30;97.20;;;;;;5023145;28;20430;-76
2021/05/28 12:36:12;;;;;;;3.80;3.50;;;21.30;96.50;;;;;;5025148;28;20446;-76
2021/05/28 12:38:46;;;;;;;7.00;4.23;;;21.40;96.40;;;;;;5025138;28;20516;-76
2021/05/28 12:41:16;;;;;;;4.10;3.13;;;21.40;96.80;;;;;;5024393;28;21873;-76
2021/05/28 12:43:44;;;;;;;4.07;3.77;;;21.40;95.30;;;;;;5028065;28;20438;-75